createdAt,value
2018-05-01T00:00:47.798Z,9.90
2018-05-01T00:03:21.242Z,9.90
2018-05-01T00:05:54.425Z,9.80
2018-05-01T00:08:26.918Z,9.70
2018-05-01T00:10:59.281Z,9.70
2018-05-01T00:13:42.049Z,9.70
2018-05-01T00:16:15.388Z,9.70
2018-05-01T00:18:48.640Z,9.60
2018-05-01T00:21:20.996Z,9.60
2018-05-01T00:23:54.349Z,9.50
2018-05-01T00:26:26.814Z,9.40
2018-05-01T00:29:08.832Z,9.40
2018-05-01T00:31:41.164Z,9.20
2018-05-01T00:34:15.457Z,9.20
2018-05-01T00:36:49.984Z,9.20
2018-05-01T00:39:22.364Z,9.20
2018-05-01T00:41:56.801Z,9.20
2018-05-01T00:44:37.996Z,9.20
2018-05-01T00:47:23.596Z,9.10
2018-05-01T00:50:02.036Z,9.10
2018-05-01T00:52:43.538Z,9.20
2018-05-01T00:55:27.072Z,9.20
2018-05-01T00:58:03.452Z,9.10
2018-05-01T01:01:00.033Z,9.10
2018-05-01T01:03:33.284Z,9.00
2018-05-01T01:06:10.521Z,9.00
2018-05-01T01:08:50.252Z,9.00
2018-05-01T01:11:23.465Z,9.00
2018-05-01T01:13:55.853Z,8.90
2018-05-01T01:16:36.772Z,8.80
2018-05-01T01:19:11.161Z,8.80
2018-05-01T01:21:54.502Z,8.60
2018-05-01T01:24:28.674Z,8.60
2018-05-01T01:27:06.648Z,8.60
2018-05-01T01:29:42.816Z,8.50
2018-05-01T01:32:15.416Z,8.40
2018-05-01T01:34:51.066Z,8.40
2018-05-01T01:37:23.240Z,8.30
2018-05-01T01:39:55.545Z,8.30
2018-05-01T01:42:33.671Z,8.20
2018-05-01T01:45:06.872Z,8.20
2018-05-01T01:47:39.057Z,8.10
2018-05-01T01:50:12.264Z,8.10
2018-05-01T01:52:48.934Z,8.20
2018-05-01T01:55:22.336Z,8.10
2018-05-01T01:57:54.721Z,8.10
2018-05-01T02:00:27.005Z,8.00
2018-05-01T02:03:00.313Z,8.00
2018-05-01T02:05:38.543Z,8.00
2018-05-01T02:08:11.501Z,8.00
2018-05-01T02:10:44.845Z,7.90
2018-05-01T02:13:17.245Z,7.90
2018-05-01T02:15:50.744Z,7.80
2018-05-01T02:18:23.692Z,7.70
2018-05-01T02:21:00.521Z,7.80
2018-05-01T02:23:32.718Z,7.70
2018-05-01T02:26:06.177Z,7.70
2018-05-01T02:28:46.434Z,7.60
2018-05-01T02:31:19.593Z,7.60
2018-05-01T02:33:52.596Z,7.50
2018-05-01T02:36:35.129Z,7.40
2018-05-01T02:39:07.418Z,7.40
2018-05-01T02:41:39.688Z,7.30
2018-05-01T02:44:23.033Z,7.20
2018-05-01T02:46:56.453Z,7.20
2018-05-01T02:49:31.693Z,7.00
2018-05-01T02:52:14.628Z,7.00
2018-05-01T02:54:46.968Z,6.90
2018-05-01T02:57:28.919Z,6.90
2018-05-01T03:00:05.606Z,6.80
2018-05-01T03:02:38.943Z,6.80
2018-05-01T03:05:19.490Z,6.70
2018-05-01T03:08:09.016Z,6.60
2018-05-01T03:10:48.681Z,6.70
2018-05-01T03:13:30.128Z,6.60
2018-05-01T03:16:02.270Z,6.50
2018-05-01T03:18:35.625Z,6.40
2018-05-01T03:21:08.872Z,6.40
2018-05-01T03:23:45.203Z,6.30
2018-05-01T03:26:20.653Z,6.30
2018-05-01T03:28:53.554Z,6.40
2018-05-01T03:31:27.039Z,6.40
2018-05-01T03:34:09.085Z,6.30
2018-05-01T03:36:41.563Z,6.40
2018-05-01T03:39:14.001Z,6.30
2018-05-01T03:41:48.188Z,6.30
2018-05-01T03:44:30.397Z,6.40
2018-05-01T03:47:02.572Z,6.40
2018-05-01T03:49:35.795Z,6.40
2018-05-01T03:52:08.180Z,6.40
2018-05-01T03:54:45.157Z,6.40
2018-05-01T03:57:20.617Z,6.50
2018-05-01T03:59:59.050Z,6.40
2018-05-01T04:02:31.328Z,6.40
2018-05-01T04:05:04.641Z,6.40
2018-05-01T04:07:40.607Z,6.50
2018-05-01T04:10:41.250Z,6.60
2018-05-01T04:13:14.556Z,6.50
2018-05-01T04:15:51.142Z,6.60
2018-05-01T04:18:34.588Z,6.60
2018-05-01T04:21:06.740Z,6.60
2018-05-01T04:23:39.664Z,6.60
2018-05-01T04:26:20.657Z,6.60
2018-05-01T04:29:02.449Z,6.70
2018-05-01T04:31:35.888Z,6.60
2018-05-01T04:34:20.637Z,6.60
2018-05-01T04:37:04.604Z,6.70
2018-05-01T04:39:40.058Z,6.70
2018-05-01T04:42:12.319Z,6.70
2018-05-01T04:45:03.310Z,6.80
2018-05-01T04:47:36.580Z,6.80
2018-05-01T04:50:22.303Z,6.90
2018-05-01T04:52:54.652Z,6.90
2018-05-01T04:55:26.796Z,6.90
2018-05-01T04:58:02.182Z,6.90
2018-05-01T05:00:37.745Z,7.00
2018-05-01T05:03:21.289Z,7.00
2018-05-01T05:05:58.898Z,7.00
2018-05-01T05:08:32.324Z,7.00
2018-05-01T05:11:12.061Z,7.00
2018-05-01T05:13:47.831Z,7.00
2018-05-01T05:16:25.538Z,7.10
2018-05-01T05:18:57.717Z,7.10
2018-05-01T05:21:29.881Z,7.10
2018-05-01T05:24:04.228Z,7.10
2018-05-01T05:26:36.521Z,7.10
2018-05-01T05:29:08.820Z,7.10
2018-05-01T05:31:41.256Z,7.10
2018-05-01T05:34:13.677Z,7.10
2018-05-01T05:36:45.972Z,7.20
2018-05-01T05:39:18.141Z,7.20
2018-05-01T05:41:53.197Z,7.40
2018-05-01T05:44:37.339Z,7.40
2018-05-01T05:47:10.752Z,7.40
2018-05-01T05:49:43.104Z,7.40
2018-05-01T05:52:21.153Z,7.70
2018-05-01T05:54:55.390Z,8.00
2018-05-01T05:57:28.377Z,8.20
2018-05-01T06:00:00.574Z,8.20
2018-05-01T06:02:48.122Z,8.40
2018-05-01T06:05:31.756Z,8.90
2018-05-01T06:08:03.948Z,8.60
2018-05-01T06:10:36.510Z,8.80
2018-05-01T06:13:10.774Z,9.60
2018-05-01T06:15:43.862Z,8.70
2018-05-01T06:18:17.888Z,9.10
2018-05-01T06:20:52.000Z,9.10
2018-05-01T06:23:33.404Z,8.70
2018-05-01T06:26:09.206Z,8.70
2018-05-01T06:28:41.655Z,9.00
2018-05-01T06:31:13.863Z,8.90
2018-05-01T06:33:46.316Z,8.60
2018-05-01T06:36:19.716Z,8.50
2018-05-01T06:38:53.134Z,8.50
2018-05-01T06:41:27.577Z,8.50
2018-05-01T06:44:00.966Z,8.80
2018-05-01T06:46:36.957Z,8.60
2018-05-01T06:49:23.611Z,8.70
2018-05-01T06:51:55.760Z,8.40
2018-05-01T06:54:28.058Z,8.60
2018-05-01T06:57:02.056Z,9.10
2018-05-01T06:59:38.953Z,9.10
2018-05-01T07:02:28.578Z,8.40
2018-05-01T07:05:02.809Z,8.60
2018-05-01T07:07:35.042Z,9.20
2018-05-01T07:10:09.491Z,9.00
2018-05-01T07:12:41.757Z,9.30
2018-05-01T07:15:15.886Z,9.40
2018-05-01T07:17:51.440Z,9.30
2018-05-01T07:20:23.777Z,9.30
2018-05-01T07:22:56.016Z,9.30
2018-05-01T07:25:46.368Z,9.30
2018-05-01T07:28:21.984Z,9.20
2018-05-01T07:30:57.121Z,9.60
2018-05-01T07:33:29.520Z,9.60
2018-05-01T07:36:01.859Z,9.20
2018-05-01T07:38:34.188Z,9.30
2018-05-01T07:41:06.469Z,9.00
2018-05-01T07:43:39.816Z,9.00
2018-05-01T07:46:12.169Z,8.80
2018-05-01T07:48:44.657Z,8.90
2018-05-01T07:51:17.721Z,9.00
2018-05-01T07:53:54.160Z,8.80
2018-05-01T07:56:26.452Z,8.80
2018-05-01T07:59:00.741Z,8.90
2018-05-01T08:01:33.125Z,9.10
2018-05-01T08:04:05.589Z,9.00
2018-05-01T08:06:38.944Z,8.70
2018-05-01T08:09:11.089Z,8.60
2018-05-01T08:11:44.093Z,8.60
2018-05-01T08:14:16.593Z,8.50
2018-05-01T08:17:08.480Z,8.40
2018-05-01T08:20:06.056Z,8.40
2018-05-01T08:22:40.381Z,8.50
2018-05-01T08:25:12.737Z,8.50
2018-05-01T08:27:49.819Z,8.50
2018-05-01T08:30:47.670Z,8.50
2018-05-01T08:33:35.610Z,8.40
2018-05-01T08:36:08.868Z,8.40
2018-05-01T08:38:41.160Z,8.40
2018-05-01T08:41:14.208Z,8.50
2018-05-01T08:43:46.625Z,8.40
2018-05-01T08:46:26.203Z,8.40
2018-05-01T08:48:59.409Z,8.70
2018-05-01T08:51:32.804Z,8.60
2018-05-01T08:54:10.825Z,8.80
2018-05-01T08:56:43.232Z,8.70
2018-05-01T08:59:15.690Z,8.70
2018-05-01T09:01:52.263Z,9.00
2018-05-01T09:04:37.970Z,8.70
2018-05-01T09:07:12.417Z,8.70
2018-05-01T09:09:46.635Z,8.90
2018-05-01T09:12:19.020Z,8.90
2018-05-01T09:14:51.433Z,9.10
2018-05-01T09:17:25.629Z,9.20
2018-05-01T09:19:57.952Z,9.50
2018-05-01T09:22:39.708Z,10.10
2018-05-01T09:25:14.162Z,9.50
2018-05-01T09:27:48.401Z,9.70
2018-05-01T09:30:21.498Z,9.70
2018-05-01T09:32:57.462Z,9.70
2018-05-01T09:35:30.893Z,9.80
2018-05-01T09:38:03.273Z,9.80
2018-05-01T09:40:45.176Z,9.80
2018-05-01T09:43:18.471Z,9.70
2018-05-01T09:45:55.980Z,10.10
2018-05-01T09:48:28.172Z,10.20
2018-05-01T09:51:10.985Z,10.70
2018-05-01T09:53:45.728Z,10.50
2018-05-01T09:56:29.490Z,10.20
2018-05-01T09:59:01.877Z,10.30
2018-05-01T10:01:34.348Z,10.00
2018-05-01T10:04:06.849Z,9.70
2018-05-01T10:06:39.463Z,9.90
2018-05-01T10:09:11.924Z,10.20
2018-05-01T10:11:44.406Z,10.80
2018-05-01T10:14:16.884Z,10.70
2018-05-01T10:16:53.684Z,10.40
2018-05-01T10:19:26.028Z,10.40
2018-05-01T10:21:58.551Z,11.20
2018-05-01T10:24:30.932Z,11.10
2018-05-01T10:27:24.094Z,11.40
2018-05-01T10:29:56.610Z,11.40
2018-05-01T10:32:30.133Z,11.00
2018-05-01T10:35:03.540Z,11.10
2018-05-01T10:37:36.108Z,11.10
2018-05-01T10:40:08.599Z,11.30
2018-05-01T10:42:41.024Z,11.30
2018-05-01T10:45:13.719Z,12.20
2018-05-01T10:47:49.949Z,12.70
2018-05-01T10:50:29.510Z,12.10
2018-05-01T10:53:01.894Z,12.50
2018-05-01T10:55:34.588Z,12.30
2018-05-01T10:58:07.679Z,12.10
2018-05-01T11:00:40.300Z,12.10
2018-05-01T11:03:13.746Z,13.70
2018-05-01T11:05:46.873Z,13.60
2018-05-01T11:08:20.196Z,14.30
2018-05-01T11:11:02.720Z,14.30
2018-05-01T11:13:35.224Z,13.40
2018-05-01T11:16:11.909Z,13.00
2018-05-01T11:18:46.423Z,13.90
2018-05-01T11:21:19.740Z,13.10
2018-05-01T11:24:04.618Z,13.10
2018-05-01T11:26:37.486Z,13.60
2018-05-01T11:29:09.988Z,13.30
2018-05-01T11:31:42.685Z,14.00
2018-05-01T11:34:15.074Z,14.30
2018-05-01T11:36:48.687Z,14.00
2018-05-01T11:39:39.150Z,12.60
2018-05-01T11:42:11.788Z,12.60
2018-05-01T11:44:44.276Z,13.40
2018-05-01T11:47:17.901Z,13.00
2018-05-01T11:49:56.205Z,13.10
2018-05-01T11:52:32.697Z,12.60
2018-05-01T11:55:10.337Z,12.50
2018-05-01T11:57:42.793Z,12.40
2018-05-01T12:00:17.420Z,12.50
2018-05-01T12:02:50.013Z,12.90
2018-05-01T12:05:31.354Z,13.90
2018-05-01T12:08:04.927Z,14.50
2018-05-01T12:10:38.574Z,13.60
2018-05-01T12:13:11.072Z,12.90
2018-05-01T12:15:59.233Z,13.00
2018-05-01T12:18:32.559Z,14.00
2018-05-01T12:21:06.976Z,14.00
2018-05-01T12:23:43.996Z,14.00
2018-05-01T12:26:16.496Z,14.10
2018-05-01T12:28:48.992Z,13.80
2018-05-01T12:31:22.101Z,14.80
2018-05-01T12:33:54.593Z,14.80
2018-05-01T12:36:31.035Z,13.20
2018-05-01T12:39:05.429Z,13.20
2018-05-01T12:41:44.845Z,13.50
2018-05-01T12:44:20.532Z,13.50
2018-05-01T12:46:54.032Z,14.30
2018-05-01T12:49:27.520Z,14.30
2018-05-01T12:52:00.956Z,13.70
2018-05-01T12:54:33.593Z,14.30
2018-05-01T12:57:08.278Z,13.80
2018-05-01T12:59:48.344Z,13.20
2018-05-01T13:02:20.836Z,13.50
2018-05-01T13:04:56.933Z,13.30
2018-05-01T13:07:34.627Z,13.80
2018-05-01T13:10:35.147Z,13.70
2018-05-01T13:13:08.792Z,13.70
2018-05-01T13:15:41.136Z,14.20
2018-05-01T13:18:13.628Z,13.90
2018-05-01T13:20:47.141Z,13.60
2018-05-01T13:23:19.620Z,13.20
2018-05-01T13:25:52.120Z,14.00
2018-05-01T13:28:26.457Z,14.30
2018-05-01T13:30:58.980Z,14.30
2018-05-01T13:33:32.455Z,13.90
2018-05-01T13:36:04.851Z,14.50
2018-05-01T13:38:37.428Z,15.20
2018-05-01T13:41:09.920Z,15.30
2018-05-01T13:43:49.469Z,14.00
2018-05-01T13:46:21.896Z,14.10
2018-05-01T13:48:57.368Z,15.60
2018-05-01T13:51:29.707Z,15.50
2018-05-01T13:54:02.176Z,15.70
2018-05-01T13:56:35.238Z,15.00
2018-05-01T13:59:17.925Z,14.90
2018-05-01T14:01:56.441Z,15.00
2018-05-01T14:04:29.406Z,14.90
2018-05-01T14:07:03.165Z,14.80
2018-05-01T14:09:35.836Z,15.40
2018-05-01T14:12:08.353Z,15.90
2018-05-01T14:14:42.872Z,16.00
2018-05-01T14:17:15.367Z,15.50
2018-05-01T14:19:47.697Z,15.40
2018-05-01T14:22:21.252Z,15.00
2018-05-01T14:24:56.773Z,13.90
2018-05-01T14:27:29.112Z,13.80
2018-05-01T14:30:02.881Z,14.10
2018-05-01T14:32:36.132Z,14.30
2018-05-01T14:35:10.666Z,14.30
2018-05-01T14:37:43.144Z,14.30
2018-05-01T14:40:15.638Z,14.60
2018-05-01T14:42:47.936Z,14.50
2018-05-01T14:45:22.452Z,14.40
2018-05-01T14:47:55.051Z,14.40
2018-05-01T14:50:27.633Z,14.20
2018-05-01T14:53:00.125Z,14.40
2018-05-01T14:55:43.768Z,14.50
2018-05-01T14:58:22.197Z,14.80
2018-05-01T15:00:54.684Z,14.80
2018-05-01T15:03:27.012Z,15.00
2018-05-01T15:05:59.556Z,15.10
2018-05-01T15:08:32.048Z,15.10
2018-05-01T15:11:04.542Z,15.10
2018-05-01T15:13:37.133Z,14.70
2018-05-01T15:16:10.536Z,14.50
2018-05-01T15:18:45.067Z,14.20
2018-05-01T15:21:17.485Z,14.30
2018-05-01T15:23:50.446Z,14.60
2018-05-01T15:26:24.064Z,15.40
2018-05-01T15:28:56.577Z,15.50
2018-05-01T15:31:29.150Z,15.40
2018-05-01T15:34:01.624Z,15.90
2018-05-01T15:36:34.435Z,16.10
2018-05-01T15:39:07.616Z,17.20
2018-05-01T15:41:40.833Z,17.50
2018-05-01T15:44:13.431Z,17.50
2018-05-01T15:46:46.538Z,17.40
2018-05-01T15:49:20.965Z,17.40
2018-05-01T15:51:53.340Z,17.30
2018-05-01T15:54:33.960Z,17.90
2018-05-01T15:57:06.332Z,17.60
2018-05-01T15:59:40.766Z,17.80
2018-05-01T16:02:13.244Z,18.00
2018-05-01T16:04:46.447Z,16.90
2018-05-01T16:07:19.949Z,16.90
2018-05-01T16:09:52.345Z,14.80
2018-05-01T16:12:24.916Z,14.20
2018-05-01T16:14:57.301Z,14.60
2018-05-01T16:17:29.945Z,14.60
2018-05-01T16:20:04.472Z,15.10
2018-05-01T16:22:38.870Z,15.40
2018-05-01T16:25:11.250Z,15.90
2018-05-01T16:27:47.012Z,15.50
2018-05-01T16:30:19.351Z,16.00
2018-05-01T16:32:51.812Z,16.90
2018-05-01T16:35:25.052Z,17.20
2018-05-01T16:37:57.485Z,17.20
2018-05-01T16:40:30.075Z,17.60
2018-05-01T16:43:02.561Z,18.10
2018-05-01T16:45:35.176Z,18.10
2018-05-01T16:48:08.352Z,16.40
2018-05-01T16:50:41.046Z,16.40
2018-05-01T16:53:13.625Z,16.70
2018-05-01T16:55:46.028Z,16.00
2018-05-01T16:58:18.608Z,15.60
2018-05-01T17:00:50.992Z,16.00
2018-05-01T17:03:24.295Z,16.10
2018-05-01T17:05:57.507Z,16.10
2018-05-01T17:08:29.980Z,16.10
2018-05-01T17:11:05.364Z,15.90
2018-05-01T17:13:39.178Z,15.90
2018-05-01T17:16:16.260Z,15.70
2018-05-01T17:18:48.732Z,15.50
2018-05-01T17:21:23.386Z,15.20
2018-05-01T17:23:55.878Z,14.90
2018-05-01T17:26:32.766Z,15.00
2018-05-01T17:29:05.258Z,15.00
2018-05-01T17:31:38.664Z,15.10
2018-05-01T17:34:15.461Z,15.20
2018-05-01T17:36:48.051Z,15.30
2018-05-01T17:39:21.445Z,15.60
2018-05-01T17:41:53.833Z,15.30
2018-05-01T17:44:31.808Z,14.80
2018-05-01T17:47:04.460Z,14.40
2018-05-01T17:49:37.776Z,13.80
2018-05-01T17:52:11.989Z,13.60
2018-05-01T17:54:44.392Z,13.60
2018-05-01T17:57:17.672Z,13.80
2018-05-01T17:59:58.875Z,13.80
2018-05-01T18:02:31.364Z,13.40
2018-05-01T18:05:09.997Z,13.20
2018-05-01T18:07:42.505Z,13.20
2018-05-01T18:10:18.587Z,13.20
2018-05-01T18:12:51.756Z,12.90
2018-05-01T18:15:27.639Z,12.80
2018-05-01T18:18:02.281Z,12.70
2018-05-01T18:20:38.121Z,12.60
2018-05-01T18:23:11.681Z,12.50
2018-05-01T18:25:44.169Z,12.40
2018-05-01T18:28:16.682Z,12.40
2018-05-01T18:30:49.073Z,12.20
2018-05-01T18:33:22.209Z,11.90
2018-05-01T18:35:54.644Z,11.90
2018-05-01T18:38:27.307Z,11.80
2018-05-01T18:41:00.901Z,11.50
2018-05-01T18:43:35.397Z,11.30
2018-05-01T18:46:08.489Z,10.80
2018-05-01T18:48:41.264Z,10.80
2018-05-01T18:51:21.505Z,10.60
2018-05-01T18:53:57.933Z,10.50
2018-05-01T18:56:30.270Z,10.50
2018-05-01T18:59:02.773Z,10.40
2018-05-01T19:01:35.224Z,10.20
2018-05-01T19:04:07.720Z,10.20
2018-05-01T19:06:51.669Z,10.00
2018-05-01T19:09:25.909Z,9.70
2018-05-01T19:12:01.833Z,9.60
2018-05-01T19:14:36.561Z,9.50
2018-05-01T19:17:10.905Z,9.30
2018-05-01T19:19:43.486Z,9.30
2018-05-01T19:22:16.021Z,9.30
2018-05-01T19:24:49.543Z,9.30
2018-05-01T19:27:22.082Z,9.30
2018-05-01T19:29:54.512Z,9.10
2018-05-01T19:32:36.343Z,8.80
2018-05-01T19:35:08.754Z,8.80
2018-05-01T19:37:43.147Z,8.80
2018-05-01T19:40:16.034Z,8.80
2018-05-01T19:42:50.708Z,9.00
2018-05-01T19:45:31.056Z,8.90
2018-05-01T19:48:06.977Z,8.80
2018-05-01T19:50:39.807Z,8.80
2018-05-01T19:53:12.200Z,8.70
2018-05-01T19:55:44.783Z,8.60
2018-05-01T19:58:20.477Z,8.60
2018-05-01T20:00:54.160Z,8.50
2018-05-01T20:03:26.659Z,8.50
2018-05-01T20:06:02.005Z,8.40
2018-05-01T20:08:36.461Z,8.30
2018-05-01T20:11:08.840Z,8.50
2018-05-01T20:13:42.457Z,8.70
2018-05-01T20:16:37.304Z,8.80
2018-05-01T20:19:29.857Z,8.80
2018-05-01T20:22:06.713Z,8.80
2018-05-01T20:24:39.227Z,8.70
2018-05-01T20:27:11.541Z,8.50
2018-05-01T20:29:47.441Z,8.20
2018-05-01T20:32:30.883Z,7.90
2018-05-01T20:35:05.537Z,7.90
2018-05-01T20:37:37.918Z,8.00
2018-05-01T20:40:16.448Z,8.00
2018-05-01T20:42:48.799Z,7.90
2018-05-01T20:45:23.362Z,7.80
2018-05-01T20:48:07.073Z,7.70
2018-05-01T20:50:50.674Z,7.80
2018-05-01T20:53:29.086Z,7.70
2018-05-01T20:56:03.738Z,7.60
2018-05-01T20:58:36.109Z,7.60
2018-05-01T21:01:11.484Z,7.50
2018-05-01T21:03:44.029Z,7.50
2018-05-01T21:06:16.641Z,7.50
2018-05-01T21:08:48.976Z,7.50
2018-05-01T21:11:22.257Z,7.40
2018-05-01T21:14:05.978Z,7.40
2018-05-01T21:16:39.512Z,7.30
2018-05-01T21:19:11.848Z,7.50
2018-05-01T21:22:12.698Z,7.50
2018-05-01T21:24:45.031Z,7.40
2018-05-01T21:27:19.450Z,7.30
2018-05-01T21:29:51.829Z,7.10
2018-05-01T21:32:38.392Z,7.10
2018-05-01T21:35:14.434Z,7.10
2018-05-01T21:37:48.697Z,7.00
2018-05-01T21:40:32.326Z,7.00
2018-05-01T21:43:05.763Z,6.80
2018-05-01T21:45:38.157Z,6.60
2018-05-01T21:48:12.747Z,6.50
2018-05-01T21:50:52.928Z,6.30
2018-05-01T21:53:28.183Z,6.20
2018-05-01T21:56:01.459Z,6.30
2018-05-01T21:58:34.985Z,6.20
2018-05-01T22:01:11.738Z,6.30
2018-05-01T22:03:44.352Z,6.20
2018-05-01T22:06:16.880Z,6.20
2018-05-01T22:08:49.463Z,6.10
2018-05-01T22:11:23.685Z,6.00
2018-05-01T22:13:56.060Z,6.00
2018-05-01T22:16:33.471Z,6.40
2018-05-01T22:19:10.026Z,6.40
2018-05-01T22:21:55.485Z,6.50
2018-05-01T22:24:28.057Z,6.50
2018-05-01T22:27:00.697Z,6.50
2018-05-01T22:29:33.130Z,6.60
2018-05-01T22:32:06.397Z,6.60
2018-05-01T22:34:38.785Z,6.60
2018-05-01T22:37:12.348Z,6.70
2018-05-01T22:39:48.368Z,6.50
2018-05-01T22:42:22.830Z,6.40
2018-05-01T22:44:58.116Z,6.20
2018-05-01T22:47:30.531Z,6.20
2018-05-01T22:50:04.069Z,6.10
2018-05-01T22:52:36.426Z,6.10
2018-05-01T22:55:08.807Z,5.90
2018-05-01T22:57:42.229Z,5.90
2018-05-01T23:00:15.791Z,5.90
2018-05-01T23:02:49.191Z,5.90
2018-05-01T23:05:23.856Z,5.90
2018-05-01T23:08:19.259Z,6.00
2018-05-01T23:10:53.876Z,6.10
2018-05-01T23:13:26.269Z,6.10
2018-05-01T23:15:59.436Z,6.00
2018-05-01T23:18:31.956Z,6.00
2018-05-01T23:21:06.452Z,5.70
2018-05-01T23:23:42.840Z,5.80
2018-05-01T23:26:17.293Z,5.80
2018-05-01T23:28:49.735Z,5.80
2018-05-01T23:31:22.462Z,5.80
2018-05-01T23:33:54.992Z,5.80
2018-05-01T23:36:28.549Z,5.80
2018-05-01T23:39:02.025Z,5.80
2018-05-01T23:41:35.477Z,5.80
2018-05-01T23:44:09.844Z,5.80
2018-05-01T23:46:42.292Z,5.70
2018-05-01T23:49:23.088Z,5.80
2018-05-01T23:51:55.628Z,5.80
2018-05-01T23:54:28.069Z,5.80
2018-05-01T23:57:00.537Z,5.70
2018-05-01T23:59:34.050Z,5.50
